www.cux-wetter.de
Wetterdaten: Donnerstag, 02.08.2012
Datum Zeit Temp. A. Feuchte A. Luftdruck Regen Wind Richtung Richtung Sonnenschein Solar Taupunkt Windchill Windben
02.08.2012 00:00 19,5 C 79 % 1009,5 hPa 0,0 l/m 8,3 km/h (2 Bft) S 180 0 min 0 W/m 15,8 C 18,7 C 8,3 km/h (2 Bft)
02.08.2012 00:15 19,6 C 79 % 1009,5 hPa 0,0 l/m 7,6 km/h (2 Bft) S 170 0 min 0 W/m 15,9 C 19,1 C 7,6 km/h (2 Bft)
02.08.2012 00:30 19,6 C 79 % 1009,5 hPa 0,0 l/m 7,6 km/h (2 Bft) S-SO 165 0 min 0 W/m 15,9 C 19,1 C 7,6 km/h (2 Bft)
02.08.2012 00:45 19,5 C 78 % 1009,5 hPa 0,0 l/m 9,0 km/h (2 Bft) S 175 0 min 0 W/m 15,6 C 18,4 C 9,0 km/h (2 Bft)
02.08.2012 00:59 19,6 C 76 % 1009,5 hPa 0,0 l/m 13,9 km/h (3 Bft) S 190 0 min 0 W/m 15,2 C 17,0 C 13,9 km/h (3 Bft)
02.08.2012 01:15 19,6 C 75 % 1009,5 hPa 0,0 l/m 10,2 km/h (2 Bft) S 190 0 min 0 W/m 15,0 C 18,1 C 10,2 km/h (2 Bft)
02.08.2012 01:30 19,6 C 74 % 1008,5 hPa 0,0 l/m 15,3 km/h (3 Bft) S-SO 165 0 min 0 W/m 14,8 C 16,7 C 15,3 km/h (3 Bft)
02.08.2012 01:45 19,6 C 74 % 1008,5 hPa 0,0 l/m 16,2 km/h (3 Bft) S-SW 195 0 min 0 W/m 14,8 C 16,5 C 16,2 km/h (3 Bft)
02.08.2012 01:59 19,6 C 73 % 1008,5 hPa 0,0 l/m 14,1 km/h (3 Bft) S-SO 165 0 min 0 W/m 14,6 C 17,0 C 14,1 km/h (3 Bft)
02.08.2012 02:15 19,6 C 72 % 1008,5 hPa 0,0 l/m 14,3 km/h (3 Bft) S-SW 195 0 min 0 W/m 14,4 C 16,9 C 14,3 km/h (3 Bft)
02.08.2012 02:30 19,7 C 71 % 1008,5 hPa 0,0 l/m 17,9 km/h (3 Bft) S 175 0 min 0 W/m 14,3 C 16,2 C 17,9 km/h (3 Bft)
02.08.2012 02:45 19,7 C 71 % 1008,5 hPa 0,0 l/m 19,6 km/h (3 Bft) S 180 0 min 0 W/m 14,3 C 15,9 C 19,6 km/h (3 Bft)
02.08.2012 02:59 19,8 C 70 % 1008,5 hPa 0,0 l/m 17,9 km/h (3 Bft) S-SW 195 0 min 0 W/m 14,2 C 16,4 C 17,9 km/h (3 Bft)
02.08.2012 03:15 19,8 C 70 % 1008,5 hPa 0,0 l/m 19,0 km/h (3 Bft) S 190 0 min 0 W/m 14,2 C 16,1 C 19,0 km/h (3 Bft)
02.08.2012 03:30 19,8 C 69 % 1008,5 hPa 0,0 l/m 22,2 km/h (4 Bft) S 190 0 min 0 W/m 13,9 C 15,6 C 22,2 km/h (4 Bft)
02.08.2012 03:44 19,8 C 69 % 1007,5 hPa 0,0 l/m 19,2 km/h (3 Bft) S-SW 195 0 min 0 W/m 13,9 C 16,1 C 19,2 km/h (3 Bft)
02.08.2012 04:00 19,7 C 68 % 1007,5 hPa 0,0 l/m 16,9 km/h (3 Bft) S 185 0 min 0 W/m 13,6 C 16,4 C 16,9 km/h (3 Bft)
02.08.2012 04:15 19,6 C 68 % 1007,5 hPa 0,0 l/m 18,3 km/h (3 Bft) S 185 0 min 0 W/m 13,5 C 16,0 C 18,3 km/h (3 Bft)
02.08.2012 04:30 19,6 C 69 % 1007,5 hPa 0,0 l/m 15,4 km/h (3 Bft) S 190 0 min 0 W/m 13,8 C 16,7 C 15,4 km/h (3 Bft)
02.08.2012 04:44 19,6 C 68 % 1007,5 hPa 0,0 l/m 24,1 km/h (4 Bft) S-SW 195 0 min 0 W/m 13,5 C 15,0 C 24,1 km/h (4 Bft)
02.08.2012 05:00 19,8 C 68 % 1007,5 hPa 0,0 l/m 31,1 km/h (5 Bft) NW 305 0 min 0 W/m 13,7 C 14,3 C 31,1 km/h (5 Bft)
02.08.2012 05:15 19,9 C 69 % 1008,5 hPa 0,0 l/m 17,3 km/h (3 Bft) W 280 0 min 0 W/m 14,0 C 16,6 C 17,3 km/h (3 Bft)
02.08.2012 05:29 19,8 C 72 % 1008,5 hPa 0,0 l/m 8,6 km/h (2 Bft) W 275 0 min 0 W/m 14,6 C 18,9 C 8,6 km/h (2 Bft)
02.08.2012 05:45 19,5 C 74 % 1007,5 hPa 0,0 l/m 5,6 km/h (2 Bft) N-NO 20 0 min 0 W/m 14,7 C 19,5 C 5,6 km/h (2 Bft)
02.08.2012 06:00 19,4 C 77 % 1008,5 hPa 0,0 l/m 10,6 km/h (2 Bft) N-NO 15 0 min 0 W/m 15,3 C 17,8 C 10,6 km/h (2 Bft)
02.08.2012 06:15 19,2 C 79 % 1008,5 hPa 0,0 l/m 15,8 km/h (3 Bft) NO 35 0 min 0 W/m 15,5 C 16,1 C 15,8 km/h (3 Bft)
02.08.2012 06:29 19,1 C 80 % 1008,5 hPa 0,0 l/m 18,3 km/h (3 Bft) NO 40 0 min 0 W/m 15,6 C 15,4 C 18,3 km/h (3 Bft)
02.08.2012 06:45 19,1 C 81 % 1007,5 hPa 0,0 l/m 9,4 km/h (2 Bft) O-NO 60 0 min 0 W/m 15,8 C 17,9 C 9,4 km/h (2 Bft)
02.08.2012 07:00 19,2 C 82 % 1007,5 hPa 0,0 l/m 7,1 km/h (2 Bft) NO 35 0 min 0 W/m 16,0 C 18,9 C 7,1 km/h (2 Bft)
02.08.2012 07:14 19,2 C 82 % 1007,5 hPa 0,0 l/m 8,1 km/h (2 Bft) NO 55 0 min 0 W/m 16,0 C 18,5 C 8,1 km/h (2 Bft)
02.08.2012 07:30 19,3 C 83 % 1007,5 hPa 0,0 l/m 4,4 km/h (1 Bft) O-SO 105 0 min 0 W/m 16,3 C 19,3 C 4,4 km/h (1 Bft)
02.08.2012 07:45 19,4 C 83 % 1007,5 hPa 0,0 l/m 8,1 km/h (2 Bft) O-SO 105 0 min 0 W/m 16,4 C 18,7 C 8,1 km/h (2 Bft)
02.08.2012 08:00 19,4 C 83 % 1006,5 hPa 0,0 l/m 9,0 km/h (2 Bft) O-SO 120 0 min 0 W/m 16,4 C 18,3 C 9,0 km/h (2 Bft)
02.08.2012 08:15 19,7 C 83 % 1006,5 hPa 0,0 l/m 8,7 km/h (2 Bft) O-SO 105 0 min 0 W/m 16,7 C 18,8 C 8,7 km/h (2 Bft)
02.08.2012 08:30 20,0 C 82 % 1006,5 hPa 0,0 l/m 8,3 km/h (2 Bft) O 100 0 min 0 W/m 16,8 C 19,2 C 8,3 km/h (2 Bft)
02.08.2012 08:45 20,2 C 80 % 1006,5 hPa 0,0 l/m 6,9 km/h (2 Bft) O 85 0 min 0 W/m 16,6 C 20,0 C 6,9 km/h (2 Bft)
02.08.2012 09:00 20,2 C 79 % 1006,5 hPa 0,0 l/m 4,7 km/h (1 Bft) S 185 0 min 0 W/m 16,4 C 20,2 C 4,7 km/h (1 Bft)
02.08.2012 09:15 20,0 C 80 % 1007,5 hPa 0,3 l/m 6,7 km/h (2 Bft) S 180 0 min 0 W/m 16,4 C 19,9 C 6,7 km/h (2 Bft)
02.08.2012 09:30 19,4 C 83 % 1007,5 hPa 2,4 l/m 4,2 km/h (1 Bft) N-NO 25 0 min 0 W/m 16,4 C 19,4 C 4,2 km/h (1 Bft)
02.08.2012 09:45 19,2 C 84 % 1007,5 hPa 0,0 l/m 5,6 km/h (2 Bft) N-NO 20 0 min 0 W/m 16,4 C 19,2 C 5,6 km/h (2 Bft)
02.08.2012 10:00 19,4 C 85 % 1007,5 hPa 0,0 l/m 4,3 km/h (1 Bft) NO 50 0 min 0 W/m 16,8 C 19,4 C 4,3 km/h (1 Bft)
02.08.2012 10:15 19,7 C 85 % 1007,5 hPa 0,0 l/m 0,0 km/h (0 Bft) N-NO 15 0 min 0 W/m 17,1 C 19,7 C 0,0 km/h (0 Bft)
02.08.2012 10:30 19,8 C 86 % 1007,5 hPa 0,0 l/m 0,3 km/h (0 Bft) N-NO 15 0 min 0 W/m 17,4 C 19,8 C 0,3 km/h (0 Bft)
02.08.2012 10:45 20,0 C 86 % 1007,5 hPa 0,0 l/m 0,0 km/h (0 Bft) N-NO 15 0 min 0 W/m 17,6 C 20,0 C 0,0 km/h (0 Bft)
02.08.2012 11:00 20,2 C 86 % 1008,5 hPa 0,0 l/m 6,3 km/h (2 Bft) N-NW 340 0 min 0 W/m 17,8 C 20,2 C 6,3 km/h (2 Bft)
02.08.2012 11:15 20,9 C 84 % 1008,5 hPa 0,0 l/m 12,1 km/h (2 Bft) N-NW 330 0 min 0 W/m 18,1 C 19,0 C 12,1 km/h (2 Bft)
02.08.2012 11:30 20,8 C 82 % 1008,5 hPa 0,0 l/m 13,2 km/h (3 Bft) N-NW 330 0 min 0 W/m 17,6 C 18,6 C 13,2 km/h (3 Bft)
02.08.2012 11:45 20,5 C 83 % 1008,5 hPa 0,0 l/m 12,1 km/h (2 Bft) N 5 0 min 0 W/m 17,5 C 18,6 C 12,1 km/h (2 Bft)
02.08.2012 11:59 20,6 C 84 % 1008,5 hPa 0,0 l/m 7,3 km/h (2 Bft) N-NO 20 0 min 0 W/m 17,8 C 20,2 C 7,3 km/h (2 Bft)
02.08.2012 12:15 21,4 C 82 % 1008,5 hPa 0,0 l/m 4,9 km/h (1 Bft) N 355 0 min 0 W/m 18,2 C 21,4 C 4,9 km/h (1 Bft)
02.08.2012 12:30 22,2 C 78 % 1008,5 hPa 0,0 l/m 8,5 km/h (2 Bft) N-NW 345 0 min 0 W/m 18,2 C 21,5 C 8,5 km/h (2 Bft)
02.08.2012 12:44 22,3 C 75 % 1008,5 hPa 0,0 l/m 10,2 km/h (2 Bft) N-NW 340 0 min 0 W/m 17,6 C 21,1 C 10,2 km/h (2 Bft)
02.08.2012 12:59 22,3 C 75 % 1008,5 hPa 0,0 l/m 9,6 km/h (2 Bft) N 5 0 min 0 W/m 17,6 C 21,3 C 9,6 km/h (2 Bft)
02.08.2012 13:15 22,8 C 75 % 1009,5 hPa 0,0 l/m 12,0 km/h (2 Bft) N 5 0 min 0 W/m 18,1 C 21,3 C 12,0 km/h (2 Bft)
02.08.2012 13:30 23,3 C 72 % 1009,5 hPa 0,0 l/m 12,0 km/h (2 Bft) NW 310 0 min 0 W/m 18,0 C 21,8 C 12,0 km/h (2 Bft)
02.08.2012 13:44 23,2 C 70 % 1009,5 hPa 0,0 l/m 12,1 km/h (2 Bft) N-NW 330 0 min 0 W/m 17,4 C 21,7 C 12,1 km/h (2 Bft)
02.08.2012 14:00 23,2 C 71 % 1009,5 hPa 0,0 l/m 11,4 km/h (2 Bft) N-NW 340 0 min 0 W/m 17,6 C 21,8 C 11,4 km/h (2 Bft)
02.08.2012 14:15 23,3 C 71 % 1009,5 hPa 0,0 l/m 9,2 km/h (2 Bft) N-NW 345 0 min 0 W/m 17,7 C 22,5 C 9,2 km/h (2 Bft)
02.08.2012 14:29 24,2 C 69 % 1009,5 hPa 0,0 l/m 15,5 km/h (3 Bft) NW 320 0 min 0 W/m 18,1 C 22,3 C 15,5 km/h (3 Bft)
02.08.2012 14:45 24,5 C 67 % 1009,5 hPa 0,0 l/m 15,9 km/h (3 Bft) N-NW 335 0 min 0 W/m 18,0 C 22,6 C 15,9 km/h (3 Bft)
02.08.2012 15:00 23,9 C 68 % 1009,5 hPa 0,0 l/m 11,0 km/h (2 Bft) N-NO 25 0 min 0 W/m 17,6 C 22,7 C 11,0 km/h (2 Bft)
02.08.2012 15:14 22,2 C 72 % 1009,5 hPa 0,0 l/m 14,9 km/h (3 Bft) N-NO 25 0 min 0 W/m 16,9 C 19,9 C 14,9 km/h (3 Bft)
02.08.2012 15:30 21,6 C 77 % 1010,5 hPa 0,0 l/m 14,7 km/h (3 Bft) N 355 0 min 0 W/m 17,4 C 19,3 C 14,7 km/h (3 Bft)
02.08.2012 15:45 21,0 C 80 % 1010,5 hPa 0,6 l/m 17,6 km/h (3 Bft) N-NW 330 0 min 0 W/m 17,4 C 17,9 C 17,6 km/h (3 Bft)
02.08.2012 16:00 20,5 C 82 % 1010,5 hPa 0,0 l/m 23,6 km/h (4 Bft) NW 320 0 min 0 W/m 17,3 C 16,3 C 23,6 km/h (4 Bft)
02.08.2012 16:15 20,0 C 83 % 1011,5 hPa 0,0 l/m 16,7 km/h (3 Bft) NW 310 0 min 0 W/m 17,0 C 16,9 C 16,7 km/h (3 Bft)
02.08.2012 16:30 19,8 C 85 % 1011,5 hPa 1,2 l/m 14,6 km/h (3 Bft) N-NO 20 0 min 0 W/m 17,2 C 17,1 C 14,6 km/h (3 Bft)
02.08.2012 16:45 20,0 C 85 % 1011,5 hPa 0,0 l/m 15,5 km/h (3 Bft) NW 315 0 min 0 W/m 17,4 C 17,1 C 15,5 km/h (3 Bft)
02.08.2012 17:00 19,9 C 84 % 1011,5 hPa 0,0 l/m 15,3 km/h (3 Bft) NW 325 0 min 0 W/m 17,1 C 17,1 C 15,3 km/h (3 Bft)
02.08.2012 17:15 20,0 C 83 % 1011,5 hPa 0,0 l/m 14,8 km/h (3 Bft) N-NW 330 0 min 0 W/m 17,0 C 17,3 C 14,8 km/h (3 Bft)
02.08.2012 17:30 19,8 C 83 % 1011,5 hPa 0,0 l/m 13,1 km/h (3 Bft) N-NW 330 0 min 0 W/m 16,8 C 17,5 C 13,1 km/h (3 Bft)
02.08.2012 17:45 19,5 C 84 % 1011,5 hPa 0,0 l/m 12,1 km/h (2 Bft) NW 320 0 min 0 W/m 16,7 C 17,4 C 12,1 km/h (2 Bft)
02.08.2012 18:00 19,0 C 84 % 1011,5 hPa 0,6 l/m 16,6 km/h (3 Bft) NW 315 0 min 0 W/m 16,2 C 15,6 C 16,6 km/h (3 Bft)
02.08.2012 18:15 19,0 C 85 % 1011,5 hPa 0,3 l/m 14,2 km/h (3 Bft) NW 325 0 min 0 W/m 16,4 C 16,2 C 14,2 km/h (3 Bft)
02.08.2012 18:30 19,5 C 85 % 1011,5 hPa 0,0 l/m 9,2 km/h (2 Bft) NW 305 0 min 0 W/m 16,9 C 18,4 C 9,2 km/h (2 Bft)
02.08.2012 18:45 19,4 C 84 % 1011,5 hPa 0,0 l/m 10,9 km/h (2 Bft) NW 310 0 min 0 W/m 16,6 C 17,7 C 10,9 km/h (2 Bft)
02.08.2012 19:00 19,4 C 84 % 1011,5 hPa 0,0 l/m 13,1 km/h (3 Bft) N-NW 335 0 min 0 W/m 16,6 C 17,0 C 13,1 km/h (3 Bft)
02.08.2012 19:15 19,2 C 83 % 1011,5 hPa 0,0 l/m 13,1 km/h (3 Bft) N-NW 335 0 min 0 W/m 16,2 C 16,8 C 13,1 km/h (3 Bft)
02.08.2012 19:30 19,0 C 83 % 1011,5 hPa 0,0 l/m 13,0 km/h (3 Bft) N-NW 345 0 min 0 W/m 16,0 C 16,6 C 13,0 km/h (3 Bft)
02.08.2012 19:45 18,9 C 83 % 1011,5 hPa 0,0 l/m 13,0 km/h (3 Bft) N-NW 345 0 min 0 W/m 15,9 C 16,5 C 13,0 km/h (3 Bft)
02.08.2012 20:00 18,9 C 83 % 1012,5 hPa 0,0 l/m 11,0 km/h (2 Bft) W-NW 300 0 min 0 W/m 15,9 C 17,1 C 11,0 km/h (2 Bft)
02.08.2012 20:15 19,0 C 83 % 1012,5 hPa 0,0 l/m 10,9 km/h (2 Bft) NW 315 0 min 0 W/m 16,0 C 17,2 C 10,9 km/h (2 Bft)
02.08.2012 20:30 18,9 C 83 % 1012,5 hPa 0,0 l/m 10,9 km/h (2 Bft) NW 315 0 min 0 W/m 15,9 C 17,1 C 10,9 km/h (2 Bft)
02.08.2012 20:45 18,9 C 83 % 1012,5 hPa 0,0 l/m 10,9 km/h (2 Bft) NW 315 0 min 0 W/m 15,9 C 17,1 C 10,9 km/h (2 Bft)
02.08.2012 21:00 18,8 C 83 % 1012,5 hPa 0,0 l/m 10,9 km/h (2 Bft) NW 315 0 min 0 W/m 15,8 C 17,0 C 10,9 km/h (2 Bft)
02.08.2012 21:15 18,8 C 83 % 1012,5 hPa 0,0 l/m 10,9 km/h (2 Bft) NW 315 0 min 0 W/m 15,8 C 17,0 C 10,9 km/h (2 Bft)
02.08.2012 21:30 18,8 C 83 % 1012,5 hPa 0,0 l/m 10,9 km/h (2 Bft) NW 315 0 min 0 W/m 15,8 C 17,0 C 10,9 km/h (2 Bft)
02.08.2012 21:45 18,7 C 84 % 1012,5 hPa 0,0 l/m 10,9 km/h (2 Bft) NW 315 0 min 0 W/m 15,9 C 16,9 C 10,9 km/h (2 Bft)
02.08.2012 21:59 18,5 C 84 % 1012,5 hPa 0,0 l/m 10,9 km/h (2 Bft) NW 315 0 min 0 W/m 15,7 C 16,7 C 10,9 km/h (2 Bft)
02.08.2012 22:15 18,4 C 84 % 1012,5 hPa 0,0 l/m 10,9 km/h (2 Bft) NW 315 0 min 0 W/m 15,6 C 16,6 C 10,9 km/h (2 Bft)
02.08.2012 22:30 18,4 C 85 % 1012,5 hPa 0,0 l/m 0,3 km/h (0 Bft) SW 215 0 min 0 W/m 15,8 C 18,4 C 0,3 km/h (0 Bft)
02.08.2012 22:44 18,4 C 85 % 1013,5 hPa 0,0 l/m 6,5 km/h (2 Bft) S-SW 195 0 min 0 W/m 15,8 C 18,4 C 6,5 km/h (2 Bft)
02.08.2012 23:00 18,3 C 85 % 1013,5 hPa 0,0 l/m 6,5 km/h (2 Bft) S-SW 195 0 min 0 W/m 15,7 C 18,3 C 6,5 km/h (2 Bft)
02.08.2012 23:15 18,2 C 86 % 1013,5 hPa 0,0 l/m 6,5 km/h (2 Bft) S-SW 195 0 min 0 W/m 15,8 C 18,2 C 6,5 km/h (2 Bft)
02.08.2012 23:29 18,0 C 86 % 1013,5 hPa 0,0 l/m 6,5 km/h (2 Bft) S-SW 195 0 min 0 W/m 15,6 C 18,0 C 6,5 km/h (2 Bft)
02.08.2012 23:45 17,7 C 85 % 1013,5 hPa 0,0 l/m 6,5 km/h (2 Bft) S-SW 195 0 min 0 W/m 15,1 C 17,7 C 6,5 km/h (2 Bft)
_ Min-Zeit 23:45 14:45 08:00 - 10:15 - - - - 04:15 05:00 10:15
Minimum _ 17,7 C 67 % 1006,5 hPa - 0,0 km/h (0 Bft) - - - - 13,5 C 14,3 C 0,0 km/h (0 Bft)
_ Max-Zeit 14:45 10:30 22:44 09:30 05:00 - - 00:00 00:00 12:15 15:00 05:00
Maximum _ 24,5 C 86 % 1013,5 hPa 2,4 l/m 31,1 km/h
NW (5 Bft)
- - 0 min 0 W/m 18,2 C 22,7 C 31,1 km/h
NW (5 Bft)
Durchschnitt _ 20,0 C 79 % 1009,6 hPa #5,4 l/m 11,6 km/h (2 Bft) NW - #0 min. 0 W/m 16,2 C 18,2 C 11,6 km/h (2 Bft)
copyright by Holger Just